createdAt,value
2018-07-21T00:00:16.279Z,57.53
2018-07-21T00:02:44.421Z,57.42
2018-07-21T00:05:12.511Z,57.49
2018-07-21T00:07:40.487Z,57.48
2018-07-21T00:10:08.748Z,57.62
2018-07-21T00:12:36.690Z,58.18
2018-07-21T00:15:04.890Z,58.17
2018-07-21T00:17:33.339Z,57.29
2018-07-21T00:20:01.290Z,58.04
2018-07-21T00:22:29.346Z,58.51
2018-07-21T00:24:57.484Z,58.00
2018-07-21T00:27:25.568Z,57.81
2018-07-21T00:29:53.695Z,58.16
2018-07-21T00:32:21.597Z,57.37
2018-07-21T00:34:49.570Z,57.46
2018-07-21T00:37:17.891Z,57.32
2018-07-21T00:39:46.970Z,57.46
2018-07-21T00:42:14.985Z,58.23
2018-07-21T00:44:43.127Z,57.78
2018-07-21T00:47:11.554Z,57.94
2018-07-21T00:49:39.477Z,58.39
2018-07-21T00:52:07.430Z,57.92
2018-07-21T00:54:35.557Z,57.88
2018-07-21T00:57:03.522Z,57.71
2018-07-21T00:59:31.594Z,57.34
2018-07-21T01:01:59.533Z,56.58
2018-07-21T01:04:27.634Z,56.97
2018-07-21T01:06:55.684Z,57.61
2018-07-21T01:09:23.936Z,57.38
2018-07-21T01:11:51.946Z,56.73
2018-07-21T01:14:20.108Z,57.35
2018-07-21T01:16:48.128Z,57.28
2018-07-21T01:19:16.320Z,57.49
2018-07-21T01:21:44.257Z,57.21
2018-07-21T01:24:12.365Z,56.80
2018-07-21T01:26:40.460Z,56.79
2018-07-21T01:29:08.557Z,57.01
2018-07-21T01:31:36.710Z,57.59
2018-07-21T01:34:09.319Z,58.03
2018-07-21T01:36:37.877Z,57.76
2018-07-21T01:39:08.543Z,57.00
2018-07-21T01:41:36.572Z,57.12
2018-07-21T01:44:04.743Z,57.87
2018-07-21T01:46:32.710Z,57.57
2018-07-21T01:49:00.683Z,57.09
2018-07-21T01:51:32.645Z,56.92
2018-07-21T01:54:01.731Z,57.81
2018-07-21T01:56:29.735Z,57.77
2018-07-21T01:58:57.927Z,56.90
2018-07-21T02:01:25.889Z,57.46
2018-07-21T02:03:54.015Z,56.54
2018-07-21T02:06:22.146Z,57.47
2018-07-21T02:08:50.114Z,57.19
2018-07-21T02:11:18.144Z,56.54
2018-07-21T02:13:46.263Z,56.47
2018-07-21T02:16:14.351Z,56.34
2018-07-21T02:18:42.324Z,56.92
2018-07-21T02:21:10.655Z,57.24
2018-07-21T02:23:38.662Z,56.59
2018-07-21T02:26:06.651Z,57.35
2018-07-21T02:28:34.867Z,57.64
2018-07-21T02:31:02.887Z,57.52
2018-07-21T02:33:31.013Z,56.81
2018-07-21T02:35:59.141Z,57.35
2018-07-21T02:38:27.110Z,57.94
2018-07-21T02:40:55.060Z,57.69
2018-07-21T02:43:23.190Z,57.07
2018-07-21T02:45:51.105Z,56.69
2018-07-21T02:48:19.153Z,57.19
2018-07-21T02:50:47.727Z,56.85
2018-07-21T02:53:15.680Z,56.92
2018-07-21T02:55:43.457Z,56.93
2018-07-21T02:58:11.847Z,56.64
2018-07-21T03:00:39.858Z,56.47
2018-07-21T03:03:07.759Z,56.20
2018-07-21T03:05:35.729Z,55.46
2018-07-21T03:08:03.800Z,56.27
2018-07-21T03:10:31.891Z,55.40
2018-07-21T03:13:00.092Z,55.73
2018-07-21T03:15:28.125Z,56.21
2018-07-21T03:17:56.207Z,57.25
2018-07-21T03:20:24.567Z,56.90
2018-07-21T03:22:52.613Z,57.37
2018-07-21T03:25:20.645Z,58.37
2018-07-21T03:27:49.003Z,58.82
2018-07-21T03:30:16.996Z,58.88
2018-07-21T03:32:44.984Z,59.04
2018-07-21T03:35:12.931Z,59.19
2018-07-21T03:37:41.013Z,59.05
2018-07-21T03:40:09.002Z,59.59
2018-07-21T03:42:37.010Z,59.67
2018-07-21T03:45:04.986Z,59.70
2018-07-21T03:47:33.040Z,58.31
2018-07-21T03:50:01.389Z,57.78
2018-07-21T03:52:29.533Z,58.45
2018-07-21T03:54:57.356Z,57.99
2018-07-21T03:57:25.644Z,58.10
2018-07-21T03:59:54.558Z,57.42
2018-07-21T04:02:22.457Z,58.18
2018-07-21T04:04:50.585Z,58.12
2018-07-21T04:07:18.533Z,58.02
2018-07-21T04:09:46.473Z,57.75
2018-07-21T04:12:15.034Z,57.26
2018-07-21T04:14:43.010Z,57.84
2018-07-21T04:17:16.904Z,57.44
2018-07-21T04:19:44.896Z,56.71
2018-07-21T04:22:13.069Z,55.57
2018-07-21T04:24:41.216Z,54.85
2018-07-21T04:27:09.395Z,52.66
2018-07-21T04:29:37.338Z,51.99
2018-07-21T04:32:05.409Z,51.67
2018-07-21T04:34:33.340Z,49.97
2018-07-21T04:37:01.449Z,49.63
2018-07-21T04:39:29.888Z,48.93
2018-07-21T04:41:57.971Z,48.94
2018-07-21T04:44:26.053Z,49.92
2018-07-21T04:46:54.338Z,48.63
2018-07-21T04:49:22.361Z,48.18
2018-07-21T04:51:50.413Z,47.64
2018-07-21T04:54:18.550Z,47.47
2018-07-21T04:56:46.580Z,46.19
2018-07-21T04:59:14.647Z,46.25
2018-07-21T05:01:42.787Z,46.17
2018-07-21T05:04:10.841Z,45.91
2018-07-21T05:06:38.804Z,46.40
2018-07-21T05:09:09.374Z,48.79
2018-07-21T05:11:37.850Z,48.33
2018-07-21T05:14:06.450Z,48.02
2018-07-21T05:16:34.486Z,48.06
2018-07-21T05:19:02.601Z,47.07
2018-07-21T05:21:30.478Z,47.29
2018-07-21T05:24:16.860Z,48.94
2018-07-21T05:26:45.041Z,48.24
2018-07-21T05:29:13.431Z,48.51
2018-07-21T05:31:41.392Z,49.01
2018-07-21T05:34:09.491Z,49.46
2018-07-21T05:36:37.540Z,48.77
2018-07-21T05:39:07.377Z,48.92
2018-07-21T05:41:35.350Z,49.13
2018-07-21T05:44:03.538Z,50.19
2018-07-21T05:46:31.407Z,51.40
2018-07-21T05:49:00.423Z,51.40
2018-07-21T05:51:28.475Z,49.03
2018-07-21T05:53:56.566Z,47.26
2018-07-21T05:56:24.593Z,46.04
2018-07-21T05:58:52.878Z,44.37
2018-07-21T06:01:20.937Z,43.66
2018-07-21T06:03:48.950Z,43.96
2018-07-21T06:06:17.070Z,44.43
2018-07-21T06:08:45.313Z,45.63
2018-07-21T06:11:13.194Z,45.40
2018-07-21T06:13:48.878Z,44.42
2018-07-21T06:16:16.989Z,44.65
2018-07-21T06:18:45.050Z,45.51
2018-07-21T06:21:13.515Z,46.18
2018-07-21T06:23:41.522Z,46.89
2018-07-21T06:26:09.668Z,47.50
2018-07-21T06:28:38.040Z,46.50
2018-07-21T06:31:06.265Z,47.26
2018-07-21T06:33:34.262Z,46.72
2018-07-21T06:36:02.375Z,47.14
2018-07-21T06:38:30.486Z,44.19
2018-07-21T06:40:58.310Z,44.91
2018-07-21T06:43:26.324Z,45.84
2018-07-21T06:45:55.260Z,45.88
2018-07-21T06:48:23.247Z,43.14
2018-07-21T06:50:51.423Z,44.21
2018-07-21T06:53:19.443Z,44.08
2018-07-21T06:55:47.408Z,44.62
2018-07-21T06:58:15.517Z,44.59
2018-07-21T07:00:43.672Z,44.94
2018-07-21T07:03:11.674Z,45.93
2018-07-21T07:05:40.023Z,44.27
2018-07-21T07:08:07.962Z,44.90
2018-07-21T07:10:35.912Z,44.96
2018-07-21T07:13:04.401Z,44.68
2018-07-21T07:15:32.480Z,44.77
2018-07-21T07:18:00.558Z,44.03
2018-07-21T07:20:29.231Z,43.74
2018-07-21T07:22:57.333Z,43.95
2018-07-21T07:25:25.267Z,43.44
2018-07-21T07:27:53.316Z,42.97
2018-07-21T07:30:21.213Z,43.88
2018-07-21T07:32:49.182Z,43.43
2018-07-21T07:35:17.147Z,44.31
2018-07-21T07:39:14.635Z,43.50
2018-07-21T07:41:42.578Z,42.45
2018-07-21T07:44:10.651Z,41.61
2018-07-21T07:46:38.687Z,41.82
2018-07-21T07:49:07.221Z,40.07
2018-07-21T07:51:35.213Z,40.91
2018-07-21T07:54:03.198Z,40.98
2018-07-21T07:56:31.321Z,39.98
2018-07-21T07:58:59.661Z,40.11
2018-07-21T08:01:27.803Z,39.53
2018-07-21T08:03:56.117Z,40.15
2018-07-21T08:06:24.104Z,39.31
2018-07-21T08:08:52.093Z,38.12
2018-07-21T08:11:20.249Z,39.17
2018-07-21T08:13:48.241Z,38.95
2018-07-21T08:16:16.234Z,38.56
2018-07-21T08:18:44.498Z,37.54
2018-07-21T08:21:12.853Z,38.88
2018-07-21T08:23:40.730Z,38.83
2018-07-21T08:26:08.761Z,38.30
2018-07-21T08:28:36.645Z,38.48
2018-07-21T08:31:04.511Z,38.06
2018-07-21T08:33:32.665Z,38.87
2018-07-21T08:36:01.764Z,37.91
2018-07-21T08:38:29.723Z,38.02
2018-07-21T08:40:58.128Z,36.48
2018-07-21T08:43:26.158Z,38.34
2018-07-21T08:45:54.170Z,37.44
2018-07-21T08:48:22.161Z,35.73
2018-07-21T08:50:50.106Z,35.64
2018-07-21T08:53:18.074Z,36.89
2018-07-21T08:55:46.434Z,36.76
2018-07-21T08:58:14.399Z,37.16
2018-07-21T09:00:42.495Z,35.61
2018-07-21T09:03:10.881Z,36.72
2018-07-21T09:05:39.069Z,36.39
2018-07-21T09:08:07.150Z,37.02
2018-07-21T09:10:35.443Z,37.41
2018-07-21T09:13:03.557Z,37.45
2018-07-21T09:15:31.421Z,37.52
2018-07-21T09:17:59.713Z,37.25
2018-07-21T09:20:27.790Z,36.71
2018-07-21T09:22:55.848Z,36.87
2018-07-21T09:25:24.386Z,36.72
2018-07-21T09:27:52.420Z,37.27
2018-07-21T09:30:20.572Z,36.98
2018-07-21T09:32:48.874Z,36.71
2018-07-21T09:35:16.767Z,36.37
2018-07-21T09:37:45.674Z,37.37
2018-07-21T09:40:13.674Z,37.93
2018-07-21T09:42:41.608Z,37.76
2018-07-21T09:45:09.491Z,36.55
2018-07-21T09:47:37.694Z,37.58
2018-07-21T09:50:06.699Z,37.21
2018-07-21T09:52:34.706Z,36.84
2018-07-21T09:55:03.034Z,36.26
2018-07-21T09:57:31.018Z,35.43
2018-07-21T09:59:58.935Z,35.66
2018-07-21T10:02:27.242Z,36.95
2018-07-21T10:04:55.474Z,37.43
2018-07-21T10:07:23.593Z,37.27
2018-07-21T10:09:51.891Z,37.03
2018-07-21T10:12:20.143Z,37.43
2018-07-21T10:14:48.206Z,37.53
2018-07-21T10:17:16.439Z,36.34
2018-07-21T10:19:44.563Z,35.62
2018-07-21T10:22:12.584Z,34.47
2018-07-21T10:24:46.303Z,33.80
2018-07-21T10:27:15.262Z,33.90
2018-07-21T10:29:43.275Z,33.28
2018-07-21T10:32:11.909Z,32.92
2018-07-21T10:34:39.931Z,33.58
2018-07-21T10:37:07.925Z,32.49
2018-07-21T10:39:36.108Z,33.33
2018-07-21T10:42:04.071Z,32.35
2018-07-21T10:46:01.454Z,32.57
2018-07-21T10:48:29.466Z,32.35
2018-07-21T10:50:57.385Z,32.20
2018-07-21T10:53:25.511Z,32.22
2018-07-21T10:55:53.461Z,31.96
2018-07-21T10:58:21.342Z,31.83
2018-07-21T11:00:49.377Z,31.32
2018-07-21T11:03:17.280Z,32.02
2018-07-21T11:05:45.153Z,31.08
2018-07-21T11:08:14.152Z,30.70
2018-07-21T11:10:42.154Z,31.45
2018-07-21T11:13:10.241Z,31.48
2018-07-21T11:15:38.258Z,31.61
2018-07-21T11:18:06.155Z,31.14
2018-07-21T11:20:34.275Z,31.64
2018-07-21T11:23:02.289Z,31.85
2018-07-21T11:25:30.360Z,30.38
2018-07-21T11:27:58.426Z,30.58
2018-07-21T11:30:26.640Z,31.54
2018-07-21T11:32:54.557Z,31.39
2018-07-21T11:35:22.731Z,32.27
2018-07-21T11:37:50.916Z,31.63
2018-07-21T11:40:18.893Z,32.05
2018-07-21T11:42:46.824Z,30.98
2018-07-21T11:45:15.059Z,30.65
2018-07-21T11:47:42.984Z,30.59
2018-07-21T11:50:11.131Z,32.46
2018-07-21T11:52:39.356Z,30.30
2018-07-21T11:55:07.671Z,28.85
2018-07-21T11:57:35.583Z,29.28
2018-07-21T12:00:03.717Z,29.40
2018-07-21T12:02:31.826Z,29.74
2018-07-21T12:04:59.906Z,27.38
2018-07-21T12:07:28.421Z,28.29
2018-07-21T12:09:56.509Z,31.06
2018-07-21T12:12:24.422Z,29.44
2018-07-21T12:14:52.343Z,29.89
2018-07-21T12:17:20.431Z,28.95
2018-07-21T12:19:48.440Z,27.39
2018-07-21T12:22:16.810Z,27.46
2018-07-21T12:24:44.726Z,28.19
2018-07-21T12:27:12.647Z,27.09
2018-07-21T12:29:40.891Z,27.23
2018-07-21T12:32:08.834Z,26.99
2018-07-21T12:34:36.818Z,27.36
2018-07-21T12:37:05.042Z,26.45
2018-07-21T12:39:33.091Z,27.27
2018-07-21T12:42:01.019Z,27.70
2018-07-21T12:44:29.163Z,27.89
2018-07-21T12:46:57.239Z,27.03
2018-07-21T12:49:25.463Z,27.01
2018-07-21T12:51:53.578Z,26.32
2018-07-21T12:54:21.716Z,26.07
2018-07-21T12:56:49.744Z,27.33
2018-07-21T12:59:17.714Z,27.49
2018-07-21T13:01:45.677Z,26.89
2018-07-21T13:04:13.666Z,26.54
2018-07-21T13:06:41.603Z,27.42
2018-07-21T13:09:11.005Z,26.78
2018-07-21T13:11:39.194Z,26.86
2018-07-21T13:14:07.343Z,25.85
2018-07-21T13:16:35.699Z,26.33
2018-07-21T13:19:03.893Z,25.44
2018-07-21T13:21:32.018Z,25.06
2018-07-21T13:30:44.445Z,25.03
2018-07-21T13:33:12.442Z,24.09
2018-07-21T13:35:40.514Z,24.89
2018-07-21T13:38:39.667Z,25.39
2018-07-21T13:41:07.719Z,24.62
2018-07-21T13:43:35.672Z,26.32
2018-07-21T13:46:04.003Z,26.48
2018-07-21T13:48:32.126Z,26.99
2018-07-21T13:51:00.080Z,27.75
2018-07-21T13:53:28.260Z,28.77
2018-07-21T13:55:56.214Z,27.79
2018-07-21T13:58:24.354Z,27.61
2018-07-21T14:00:52.804Z,28.39
2018-07-21T14:03:20.767Z,27.50
2018-07-21T14:05:48.735Z,26.29
2018-07-21T14:08:16.959Z,27.20
2018-07-21T14:10:45.070Z,26.46
2018-07-21T14:13:13.023Z,26.62
2018-07-21T14:15:41.011Z,26.78
2018-07-21T14:18:09.120Z,26.84
2018-07-21T14:20:37.181Z,25.32
2018-07-21T14:23:05.202Z,23.79
2018-07-21T14:25:33.254Z,22.58
2018-07-21T14:28:01.326Z,21.93
2018-07-21T14:30:29.543Z,21.10
2018-07-21T14:32:57.603Z,22.10
2018-07-21T14:35:25.484Z,22.11
2018-07-21T14:37:53.837Z,20.99
2018-07-21T14:40:21.903Z,22.30
2018-07-21T14:42:49.897Z,22.21
2018-07-21T14:45:18.446Z,23.18
2018-07-21T14:47:46.407Z,22.74
2018-07-21T14:50:14.321Z,22.86
2018-07-21T14:52:42.530Z,23.88
2018-07-21T14:55:10.663Z,23.18
2018-07-21T14:57:38.761Z,23.80
2018-07-21T15:00:07.126Z,23.85
2018-07-21T15:02:35.125Z,24.11
2018-07-21T15:05:03.296Z,25.02
2018-07-21T15:07:31.694Z,25.74
2018-07-21T15:09:59.701Z,25.80
2018-07-21T15:12:27.770Z,25.56
2018-07-21T15:14:56.293Z,26.93
2018-07-21T15:17:24.525Z,26.59
2018-07-21T15:19:52.577Z,26.83
2018-07-21T15:22:20.809Z,27.57
2018-07-21T15:24:48.757Z,27.64
2018-07-21T15:27:16.926Z,27.94
2018-07-21T15:29:44.970Z,29.24
2018-07-21T15:32:12.955Z,27.92
2018-07-21T15:34:40.997Z,29.00
2018-07-21T15:37:09.874Z,29.59
2018-07-21T15:39:38.020Z,28.99
2018-07-21T15:42:06.133Z,29.04
2018-07-21T15:44:34.259Z,29.46
2018-07-21T15:47:02.048Z,29.47
2018-07-21T15:49:29.998Z,30.01
2018-07-21T15:51:58.108Z,29.97
2018-07-21T15:54:26.214Z,31.17
2018-07-21T15:56:54.141Z,31.04
2018-07-21T15:59:22.186Z,31.43
2018-07-21T16:01:50.227Z,31.36
2018-07-21T16:04:18.319Z,30.99
2018-07-21T16:06:46.272Z,31.73
2018-07-21T16:09:14.163Z,31.89
2018-07-21T16:11:42.104Z,31.54
2018-07-21T16:14:10.266Z,31.65
2018-07-21T16:16:38.178Z,30.91
2018-07-21T16:19:06.261Z,30.76
2018-07-21T16:21:34.398Z,31.70
2018-07-21T16:24:02.458Z,33.02
2018-07-21T16:26:30.533Z,32.76
2018-07-21T16:28:58.666Z,32.65
2018-07-21T16:31:26.535Z,31.86
2018-07-21T16:33:54.439Z,32.38
2018-07-21T16:36:22.548Z,32.80
2018-07-21T16:38:50.527Z,33.38
2018-07-21T16:41:18.449Z,33.06
2018-07-21T16:43:46.982Z,33.40
2018-07-21T16:46:15.033Z,34.11
2018-07-21T16:48:43.042Z,33.33
2018-07-21T16:52:40.731Z,34.31
2018-07-21T16:55:08.645Z,34.10
2018-07-21T16:57:36.456Z,34.72
2018-07-21T17:00:04.498Z,34.32
2018-07-21T17:02:32.468Z,34.67
2018-07-21T17:05:00.517Z,34.40
2018-07-21T17:07:28.567Z,34.62
2018-07-21T17:09:56.456Z,33.81
2018-07-21T17:12:24.334Z,34.12
2018-07-21T17:14:52.517Z,33.79
2018-07-21T17:17:20.388Z,34.07
2018-07-21T17:19:48.295Z,33.98
2018-07-21T17:22:16.214Z,34.25
2018-07-21T17:24:44.274Z,34.15
2018-07-21T17:27:12.276Z,35.50
2018-07-21T17:29:40.346Z,35.20
2018-07-21T17:32:08.141Z,36.61
2018-07-21T17:34:36.047Z,36.17
2018-07-21T17:37:04.187Z,37.99
2018-07-21T17:39:32.255Z,36.82
2018-07-21T17:42:00.103Z,36.96
2018-07-21T17:44:28.097Z,37.96
2018-07-21T17:46:55.932Z,38.01
2018-07-21T17:49:23.878Z,37.71
2018-07-21T17:51:51.759Z,39.30
2018-07-21T17:54:19.663Z,39.46
2018-07-21T17:56:47.709Z,40.60
2018-07-21T17:59:15.947Z,40.75
2018-07-21T18:01:43.741Z,41.21
2018-07-21T18:04:11.752Z,42.14
2018-07-21T18:06:39.850Z,41.86
2018-07-21T18:09:09.022Z,42.17
2018-07-21T18:11:36.936Z,43.33
2018-07-21T18:14:05.340Z,44.16
2018-07-21T18:16:33.176Z,44.23
2018-07-21T18:19:01.185Z,44.21
2018-07-21T18:21:29.260Z,44.66
2018-07-21T18:23:57.589Z,44.72
2018-07-21T18:26:25.635Z,45.36
2018-07-21T18:28:53.718Z,44.52
2018-07-21T18:31:21.760Z,44.11
2018-07-21T18:33:49.687Z,45.27
2018-07-21T18:36:17.620Z,45.02
2018-07-21T18:38:45.482Z,44.21
2018-07-21T18:41:13.256Z,45.40
2018-07-21T18:43:41.523Z,44.71
2018-07-21T18:46:09.546Z,45.49
2018-07-21T18:48:37.667Z,45.63
2018-07-21T18:51:05.666Z,45.74
2018-07-21T18:53:33.674Z,46.25
2018-07-21T18:56:01.454Z,46.27
2018-07-21T18:58:29.638Z,46.88
2018-07-21T19:00:57.445Z,47.21
2018-07-21T19:03:25.366Z,46.80
2018-07-21T19:05:53.394Z,47.24
2018-07-21T19:08:23.224Z,45.84
2018-07-21T19:10:52.684Z,46.45
2018-07-21T19:13:21.217Z,45.99
2018-07-21T19:15:54.624Z,45.60
2018-07-21T19:18:22.591Z,45.49
2018-07-21T19:20:56.030Z,45.83
2018-07-21T19:23:24.052Z,45.66
2018-07-21T19:25:57.651Z,46.31
2018-07-21T19:28:26.198Z,45.49
2018-07-21T19:30:54.439Z,45.70
2018-07-21T19:33:22.489Z,45.58
2018-07-21T19:35:51.018Z,46.45
2018-07-21T19:38:19.026Z,45.41
2018-07-21T19:40:46.985Z,45.80
2018-07-21T19:43:15.635Z,45.30
2018-07-21T19:45:43.565Z,45.86
2018-07-21T19:48:11.506Z,46.38
2018-07-21T19:50:39.710Z,46.21
2018-07-21T19:53:07.575Z,46.23
2018-07-21T19:55:35.572Z,45.97
2018-07-21T19:58:03.979Z,46.84
2018-07-21T20:00:31.899Z,46.68
2018-07-21T20:02:59.886Z,47.93
2018-07-21T20:05:27.800Z,48.16
2018-07-21T20:08:58.562Z,49.02
2018-07-21T20:11:26.543Z,49.98
2018-07-21T20:13:55.710Z,49.50
2018-07-21T20:16:23.733Z,51.05
2018-07-21T20:18:52.722Z,51.07
2018-07-21T20:21:20.700Z,51.19
2018-07-21T20:23:48.778Z,51.59
2018-07-21T20:26:17.310Z,51.48
2018-07-21T20:28:45.264Z,52.38
2018-07-21T20:31:13.083Z,51.35
2018-07-21T20:33:41.181Z,51.96
2018-07-21T20:36:09.116Z,52.04
2018-07-21T20:38:37.353Z,50.68
2018-07-21T20:41:05.651Z,51.33
2018-07-21T20:44:36.546Z,49.62
2018-07-21T20:47:04.598Z,50.96
2018-07-21T20:49:32.732Z,50.98
2018-07-21T20:52:00.575Z,50.62
2018-07-21T20:54:29.027Z,50.43
2018-07-21T20:56:57.061Z,50.13
2018-07-21T20:59:25.105Z,49.52
2018-07-21T21:01:53.238Z,49.90
2018-07-21T21:04:21.112Z,49.85
2018-07-21T21:07:52.893Z,50.96
2018-07-21T21:10:20.967Z,50.24
2018-07-21T21:12:48.868Z,50.21
2018-07-21T21:15:16.929Z,50.14
2018-07-21T21:17:44.772Z,50.64
2018-07-21T21:20:12.663Z,50.52
2018-07-21T21:22:40.588Z,51.58
2018-07-21T21:25:08.777Z,51.31
2018-07-21T21:27:36.745Z,50.94
2018-07-21T21:30:05.325Z,50.76
2018-07-21T21:32:33.248Z,51.24
2018-07-21T21:35:01.215Z,52.27
2018-07-21T21:37:29.506Z,51.73
2018-07-21T21:39:57.456Z,52.42
2018-07-21T21:42:25.390Z,53.22
2018-07-21T21:44:53.490Z,54.18
2018-07-21T21:47:21.394Z,53.37
2018-07-21T21:49:49.324Z,53.68
2018-07-21T21:52:17.140Z,53.61
2018-07-21T21:54:45.058Z,54.62
2018-07-21T21:57:12.882Z,55.01
2018-07-21T21:59:41.073Z,55.21
2018-07-21T22:02:08.975Z,54.74
2018-07-21T22:04:36.973Z,55.33
2018-07-21T22:07:05.201Z,55.52
2018-07-21T22:09:33.186Z,55.59
2018-07-21T22:12:01.239Z,54.92
2018-07-21T22:14:29.272Z,55.78
2018-07-21T22:16:57.310Z,55.67
2018-07-21T22:19:25.307Z,55.12
2018-07-21T22:21:53.277Z,56.55
2018-07-21T22:24:21.355Z,57.43
2018-07-21T22:26:49.421Z,56.84
2018-07-21T22:29:17.927Z,57.80
2018-07-21T22:31:45.914Z,57.89
2018-07-21T22:34:13.867Z,57.77
2018-07-21T22:36:42.304Z,58.84
2018-07-21T22:39:11.496Z,59.42
2018-07-21T22:41:39.517Z,59.59
2018-07-21T22:44:07.558Z,59.11
2018-07-21T22:46:35.726Z,59.57
2018-07-21T22:49:03.631Z,59.77
2018-07-21T22:51:31.824Z,59.22
2018-07-21T22:53:59.736Z,59.80
2018-07-21T22:56:27.720Z,59.48
2018-07-21T22:58:55.735Z,59.15
2018-07-21T23:01:23.699Z,59.87
2018-07-21T23:03:51.536Z,59.52
2018-07-21T23:06:19.438Z,59.62
2018-07-21T23:08:47.388Z,60.05
2018-07-21T23:11:16.346Z,59.82
2018-07-21T23:13:44.551Z,59.87
2018-07-21T23:16:12.610Z,59.77
2018-07-21T23:18:40.704Z,59.83
2018-07-21T23:21:08.916Z,60.31
2018-07-21T23:23:37.047Z,59.26
2018-07-21T23:26:05.045Z,59.40
2018-07-21T23:28:33.239Z,59.19
2018-07-21T23:31:01.124Z,58.71
2018-07-21T23:33:28.896Z,59.13
2018-07-21T23:35:56.955Z,58.78
2018-07-21T23:38:24.988Z,59.10
2018-07-21T23:40:52.995Z,59.92
2018-07-21T23:43:21.055Z,59.55
2018-07-21T23:45:48.952Z,59.58
2018-07-21T23:48:16.964Z,60.79
2018-07-21T23:50:45.074Z,60.40
2018-07-21T23:53:12.870Z,60.66
2018-07-21T23:55:40.881Z,60.08
2018-07-21T23:58:09.050Z,60.07
